createdAt,value
2019-01-03T00:00:44.077Z,53.2
2019-01-03T00:05:42.345Z,53.2
2019-01-03T00:10:40.673Z,53.2
2019-01-03T00:15:39.055Z,53.2
2019-01-03T00:20:36.968Z,53.1
2019-01-03T00:25:35.236Z,53.2
2019-01-03T00:30:33.255Z,53.2
2019-01-03T00:35:31.660Z,53.2
2019-01-03T00:40:30.106Z,53.2
2019-01-03T00:45:28.264Z,53.1
2019-01-03T00:50:26.699Z,53.2
2019-01-03T00:55:24.668Z,53.1
2019-01-03T01:00:23.025Z,53.2
2019-01-03T01:05:21.405Z,53.1
2019-01-03T01:10:19.979Z,53.1
2019-01-03T01:15:17.696Z,53.1
2019-01-03T01:20:15.562Z,53.1
2019-01-03T01:25:13.990Z,53.2
2019-01-03T01:30:11.875Z,53.1
2019-01-03T01:35:10.222Z,53.1
2019-01-03T01:40:08.629Z,53.1
2019-01-03T01:45:06.964Z,53.1
2019-01-03T01:50:05.051Z,53.1
2019-01-03T01:55:03.436Z,53.1
2019-01-03T02:00:01.759Z,53.1
2019-01-03T02:04:59.627Z,53.1
2019-01-03T02:09:57.766Z,53.1
2019-01-03T02:14:56.361Z,53.1
2019-01-03T02:19:54.566Z,53.1
2019-01-03T02:24:52.725Z,53.1
2019-01-03T02:29:51.109Z,53.1
2019-01-03T02:34:49.509Z,53.1
2019-01-03T02:39:47.874Z,53.1
2019-01-03T02:44:46.058Z,53.1
2019-01-03T02:49:44.694Z,53.1
2019-01-03T02:54:43.080Z,53.1
2019-01-03T02:59:41.605Z,53.1
2019-01-03T03:04:39.910Z,53.1
2019-01-03T03:09:38.194Z,53.1
2019-01-03T03:14:36.704Z,53.1
2019-01-03T03:19:34.879Z,53.1
2019-01-03T03:24:32.892Z,53.1
2019-01-03T03:29:31.467Z,53.1
2019-01-03T03:34:29.924Z,53.1
2019-01-03T03:39:28.226Z,53
2019-01-03T03:44:26.617Z,53.1
2019-01-03T03:49:25.034Z,53.1
2019-01-03T03:54:23.606Z,53.1
2019-01-03T03:59:21.307Z,53.1
2019-01-03T04:04:19.721Z,53.1
2019-01-03T04:09:17.925Z,53.1
2019-01-03T04:14:16.135Z,53.1
2019-01-03T04:19:14.035Z,53.1
2019-01-03T04:24:12.533Z,53.1
2019-01-03T04:29:10.962Z,53.1
2019-01-03T04:34:09.224Z,53
2019-01-03T04:39:07.593Z,53.1
2019-01-03T04:44:05.887Z,53
2019-01-03T04:49:04.134Z,53.1
2019-01-03T04:54:02.354Z,53.1
2019-01-03T04:59:00.866Z,53.1
2019-01-03T05:03:59.165Z,53.1
2019-01-03T05:08:57.415Z,53.1
2019-01-03T05:13:55.700Z,53.1
2019-01-03T05:18:53.703Z,53.1
2019-01-03T05:23:57.760Z,53.1
2019-01-03T05:28:54.750Z,53
2019-01-03T05:33:53.201Z,53
2019-01-03T05:38:51.055Z,53.1
2019-01-03T05:43:49.309Z,53.1
2019-01-03T05:48:47.519Z,53.1
2019-01-03T05:53:45.712Z,53.1
2019-01-03T05:58:43.907Z,53.1
2019-01-03T06:03:42.138Z,53.1
2019-01-03T06:08:40.640Z,53.1
2019-01-03T06:13:39.058Z,53.1
2019-01-03T06:18:37.470Z,53.1
2019-01-03T06:23:35.735Z,53.1
2019-01-03T06:28:33.913Z,53.1
2019-01-03T06:33:32.149Z,53.1
2019-01-03T06:38:30.539Z,53.1
2019-01-03T06:43:28.925Z,53.1
2019-01-03T06:48:27.273Z,53.1
2019-01-03T06:53:25.706Z,53.1
2019-01-03T06:58:24.176Z,53.1
2019-01-03T07:03:22.540Z,53.1
2019-01-03T07:08:20.945Z,53.1
2019-01-03T07:13:19.548Z,53
2019-01-03T07:18:17.846Z,53.1
2019-01-03T07:23:16.359Z,53.1
2019-01-03T07:28:14.816Z,53.1
2019-01-03T07:33:13.084Z,53.1
2019-01-03T07:38:11.174Z,53.1
2019-01-03T07:43:09.556Z,53.1
2019-01-03T07:48:07.875Z,53.1
2019-01-03T07:53:05.930Z,53.1
2019-01-03T07:58:04.338Z,53.1
2019-01-03T08:03:02.649Z,53.1
2019-01-03T08:08:01.095Z,53.2
2019-01-03T08:12:59.456Z,53.2
2019-01-03T08:17:58.100Z,53.2
2019-01-03T08:22:56.441Z,53.2
2019-01-03T08:27:54.465Z,53.1
2019-01-03T08:32:52.865Z,53.1
2019-01-03T08:37:51.343Z,53.1
2019-01-03T08:42:49.743Z,53.1
2019-01-03T08:47:48.075Z,53.2
2019-01-03T08:52:46.429Z,53.2
2019-01-03T08:57:44.490Z,53.2
2019-01-03T09:02:42.614Z,53.2
2019-01-03T09:07:40.634Z,53.2
2019-01-03T09:12:39.182Z,53.2
2019-01-03T09:17:37.349Z,53.2
2019-01-03T09:22:35.311Z,53.2
2019-01-03T09:27:33.864Z,53.2
2019-01-03T09:32:31.536Z,53.2
2019-01-03T09:37:29.859Z,53.2
2019-01-03T09:42:28.304Z,53.2
2019-01-03T09:47:26.797Z,53.2
2019-01-03T09:52:24.614Z,53.3
2019-01-03T09:57:23.186Z,53.3
2019-01-03T10:02:21.551Z,53.3
2019-01-03T10:07:19.952Z,53.3
2019-01-03T10:12:18.388Z,53.3
2019-01-03T10:17:16.790Z,53.3
2019-01-03T10:22:15.058Z,53.3
2019-01-03T10:27:13.172Z,53.3
2019-01-03T10:32:11.155Z,53.3
2019-01-03T10:37:09.450Z,53.4
2019-01-03T10:42:07.921Z,53.4
2019-01-03T10:47:06.233Z,53.4
2019-01-03T10:52:04.534Z,53.4
2019-01-03T10:57:02.780Z,53.5
2019-01-03T11:02:01.364Z,53.5
2019-01-03T11:06:59.882Z,53.5
2019-01-03T11:11:58.219Z,53.6
2019-01-03T11:16:56.645Z,53.5
2019-01-03T11:21:55.007Z,53.6
2019-01-03T11:26:53.422Z,53.6
2019-01-03T11:31:52.206Z,53.6
2019-01-03T11:36:50.622Z,53.6
2019-01-03T11:41:49.038Z,53.6
2019-01-03T11:46:47.522Z,53.7
2019-01-03T11:51:45.823Z,53.7
2019-01-03T11:56:44.068Z,53.7
2019-01-03T12:01:42.410Z,53.7
2019-01-03T12:06:40.759Z,53.7
2019-01-03T12:11:39.212Z,53.7
2019-01-03T12:16:37.446Z,53.7
2019-01-03T12:21:35.224Z,53.8
2019-01-03T12:26:33.817Z,53.7
2019-01-03T12:31:31.639Z,53.8
2019-01-03T12:36:29.907Z,53.8
2019-01-03T12:41:28.280Z,53.8
2019-01-03T12:46:26.820Z,53.8
2019-01-03T12:51:24.592Z,53.8
2019-01-03T12:56:22.844Z,53.9
2019-01-03T13:01:21.466Z,53.8
2019-01-03T13:06:21.476Z,53.9
2019-01-03T13:11:19.526Z,53.9
2019-01-03T13:16:17.735Z,53.9
2019-01-03T13:21:16.088Z,53.9
2019-01-03T13:26:14.250Z,54
2019-01-03T13:31:12.514Z,54
2019-01-03T13:36:10.479Z,54
2019-01-03T13:41:09.003Z,54.1
2019-01-03T13:46:07.220Z,54.1
2019-01-03T13:51:05.912Z,54.1
2019-01-03T13:56:04.441Z,54.1
2019-01-03T14:01:02.826Z,54.2
2019-01-03T14:11:05.207Z,54.1
2019-01-03T14:16:03.488Z,54.2
2019-01-03T14:21:01.778Z,54.2
2019-01-03T14:26:00.106Z,54.2
2019-01-03T14:30:58.479Z,54.3
2019-01-03T14:35:56.598Z,54.3
2019-01-03T14:40:54.927Z,54.3
2019-01-03T14:45:52.695Z,54.3
2019-01-03T14:50:51.125Z,54.3
2019-01-03T14:55:49.705Z,54.3
2019-01-03T15:00:48.088Z,54.3
2019-01-03T15:05:46.306Z,54.3
2019-01-03T15:10:44.938Z,54.3
2019-01-03T15:15:43.411Z,54.3
2019-01-03T15:20:41.763Z,54.3
2019-01-03T15:25:40.045Z,54.3
2019-01-03T15:30:38.377Z,54.3
2019-01-03T15:35:36.655Z,54.3
2019-01-03T15:40:35.217Z,54.3
2019-01-03T15:45:33.603Z,54.2
2019-01-03T15:50:31.988Z,54.2
2019-01-03T15:55:30.525Z,54.2
2019-01-03T16:00:29.135Z,54.2
2019-01-03T16:05:27.427Z,54.1
2019-01-03T16:10:25.902Z,54.1
2019-01-03T16:15:24.295Z,54.1
2019-01-03T16:20:22.615Z,54.1
2019-01-03T16:25:20.893Z,54.1
2019-01-03T16:30:19.240Z,54
2019-01-03T16:35:17.733Z,54
2019-01-03T16:40:16.242Z,54
2019-01-03T16:45:14.407Z,53.9
2019-01-03T16:50:12.453Z,53.9
2019-01-03T16:55:11.002Z,53.9
2019-01-03T17:00:09.385Z,53.8
2019-01-03T17:05:07.841Z,53.8
2019-01-03T17:10:06.306Z,53.8
2019-01-03T17:15:04.751Z,53.7
2019-01-03T17:20:03.123Z,53.7
2019-01-03T17:25:01.445Z,53.7
2019-01-03T17:29:59.797Z,53.7
2019-01-03T17:34:58.126Z,53.6
2019-01-03T17:39:56.558Z,53.6
2019-01-03T17:44:55.168Z,53.6
2019-01-03T17:49:53.424Z,53.6
2019-01-03T17:54:51.827Z,53.6
2019-01-03T17:59:50.259Z,53.5
2019-01-03T18:04:48.569Z,53.5
2019-01-03T18:09:46.838Z,53.5
2019-01-03T18:14:45.459Z,53.5
2019-01-03T18:19:43.642Z,53.4
2019-01-03T18:24:42.120Z,53.4
2019-01-03T18:29:40.536Z,53.4
2019-01-03T18:34:38.787Z,53.4
2019-01-03T18:39:37.124Z,53.3
2019-01-03T18:44:35.490Z,53.3
2019-01-03T18:49:33.891Z,53.3
2019-01-03T18:54:32.348Z,53.2
2019-01-03T18:59:30.731Z,53.2
2019-01-03T19:04:28.947Z,53.2
2019-01-03T19:09:27.574Z,53.2
2019-01-03T19:14:25.963Z,53.2
2019-01-03T19:19:24.302Z,53.1
2019-01-03T19:24:22.707Z,53.2
2019-01-03T19:29:21.039Z,53.1
2019-01-03T19:34:19.370Z,53.1
2019-01-03T19:39:17.551Z,53.1
2019-01-03T19:44:16.093Z,53.1
2019-01-03T19:49:14.596Z,53.1
2019-01-03T19:54:13.603Z,53
2019-01-03T19:59:12.015Z,53
2019-01-03T20:04:10.473Z,53
2019-01-03T20:09:08.920Z,53
2019-01-03T20:14:07.160Z,52.9
2019-01-03T20:19:05.652Z,52.9
2019-01-03T20:24:03.981Z,53
2019-01-03T20:29:02.350Z,52.9
2019-01-03T20:34:00.787Z,52.9
2019-01-03T20:38:59.212Z,52.9
2019-01-03T20:43:57.487Z,52.9
2019-01-03T20:48:55.386Z,52.9
2019-01-03T20:53:53.834Z,52.9
2019-01-03T20:58:51.866Z,52.8
2019-01-03T21:03:50.242Z,52.8
2019-01-03T21:08:48.368Z,52.8
2019-01-03T21:13:46.893Z,52.9
2019-01-03T21:18:46.478Z,52.8
2019-01-03T21:23:44.557Z,52.8
2019-01-03T21:28:43.050Z,52.8
2019-01-03T21:33:41.310Z,52.8
2019-01-03T21:38:39.714Z,52.7
2019-01-03T21:43:38.189Z,52.7
2019-01-03T21:48:36.575Z,52.7
2019-01-03T21:53:35.214Z,52.7
2019-01-03T21:58:33.111Z,52.7
2019-01-03T22:03:31.682Z,52.7
2019-01-03T22:08:30.023Z,52.7
2019-01-03T22:13:28.369Z,52.7
2019-01-03T22:18:26.625Z,52.7
2019-01-03T22:23:24.983Z,52.7
2019-01-03T22:28:23.275Z,52.6
2019-01-03T22:33:21.640Z,52.7
2019-01-03T22:38:20.017Z,52.6
2019-01-03T22:43:18.326Z,52.6
2019-01-03T22:48:16.575Z,52.6
2019-01-03T22:53:14.745Z,52.6
2019-01-03T22:58:13.334Z,52.5
2019-01-03T23:03:11.604Z,52.6
2019-01-03T23:08:09.766Z,52.5
2019-01-03T23:13:07.918Z,52.5
2019-01-03T23:18:06.228Z,52.5
2019-01-03T23:23:04.524Z,52.5
2019-01-03T23:28:02.732Z,52.5
2019-01-03T23:33:00.585Z,52.5
2019-01-03T23:37:58.905Z,52.5
2019-01-03T23:42:57.290Z,52.5
2019-01-03T23:47:55.490Z,52.4
2019-01-03T23:52:53.213Z,52.4
2019-01-03T23:57:51.744Z,52.5
